sensor_id;sensor_type;location;lat;lon;timestamp;P1;durP1;ratioP1;P2;durP2;ratioP2
20026;SDS011;10174;42.688;23.344;2022-12-10T00:02:18;39.17;;;12.93;;
20026;SDS011;10174;42.688;23.344;2022-12-10T00:04:44;36.28;;;12.35;;
20026;SDS011;10174;42.688;23.344;2022-12-10T00:07:09;38.83;;;12.20;;
20026;SDS011;10174;42.688;23.344;2022-12-10T00:09:34;37.20;;;12.15;;
20026;SDS011;10174;42.688;23.344;2022-12-10T00:12:00;41.67;;;13.13;;
20026;SDS011;10174;42.688;23.344;2022-12-10T00:14:25;37.88;;;12.43;;
20026;SDS011;10174;42.688;23.344;2022-12-10T00:16:51;48.00;;;12.13;;
20026;SDS011;10174;42.688;23.344;2022-12-10T00:19:16;27.75;;;11.40;;
20026;SDS011;10174;42.688;23.344;2022-12-10T00:21:41;37.08;;;11.40;;
20026;SDS011;10174;42.688;23.344;2022-12-10T00:24:08;38.47;;;12.20;;
20026;SDS011;10174;42.688;23.344;2022-12-10T00:26:36;33.35;;;11.20;;
20026;SDS011;10174;42.688;23.344;2022-12-10T00:29:03;31.35;;;12.30;;
20026;SDS011;10174;42.688;23.344;2022-12-10T00:31:30;35.38;;;12.60;;
20026;SDS011;10174;42.688;23.344;2022-12-10T00:34:00;42.40;;;12.75;;
20026;SDS011;10174;42.688;23.344;2022-12-10T00:36:29;50.05;;;18.52;;
20026;SDS011;10174;42.688;23.344;2022-12-10T00:38:57;42.70;;;12.50;;
20026;SDS011;10174;42.688;23.344;2022-12-10T00:41:23;36.33;;;13.07;;
20026;SDS011;10174;42.688;23.344;2022-12-10T00:43:48;39.47;;;12.48;;
20026;SDS011;10174;42.688;23.344;2022-12-10T00:46:15;32.60;;;11.60;;
20026;SDS011;10174;42.688;23.344;2022-12-10T00:48:41;31.73;;;12.07;;
20026;SDS011;10174;42.688;23.344;2022-12-10T00:51:08;36.53;;;11.52;;
20026;SDS011;10174;42.688;23.344;2022-12-10T00:53:42;29.90;;;10.95;;
20026;SDS011;10174;42.688;23.344;2022-12-10T00:56:09;29.00;;;11.20;;
20026;SDS011;10174;42.688;23.344;2022-12-10T00:58:36;35.83;;;11.85;;
20026;SDS011;10174;42.688;23.344;2022-12-10T01:01:13;28.33;;;10.00;;
20026;SDS011;10174;42.688;23.344;2022-12-10T01:03:41;36.33;;;11.00;;
20026;SDS011;10174;42.688;23.344;2022-12-10T01:06:11;35.63;;;10.93;;
20026;SDS011;10174;42.688;23.344;2022-12-10T01:08:38;29.98;;;10.70;;
20026;SDS011;10174;42.688;23.344;2022-12-10T01:11:03;22.85;;;9.60;;
20026;SDS011;10174;42.688;23.344;2022-12-10T01:13:29;31.30;;;9.45;;
20026;SDS011;10174;42.688;23.344;2022-12-10T01:15:54;29.20;;;9.70;;
20026;SDS011;10174;42.688;23.344;2022-12-10T01:18:20;33.17;;;10.65;;
20026;SDS011;10174;42.688;23.344;2022-12-10T01:20:45;25.80;;;11.55;;
20026;SDS011;10174;42.688;23.344;2022-12-10T01:23:10;39.30;;;11.15;;
20026;SDS011;10174;42.688;23.344;2022-12-10T01:25:36;29.92;;;10.27;;
20026;SDS011;10174;42.688;23.344;2022-12-10T01:28:01;33.03;;;9.43;;
20026;SDS011;10174;42.688;23.344;2022-12-10T01:30:26;33.13;;;9.65;;
20026;SDS011;10174;42.688;23.344;2022-12-10T01:32:52;24.83;;;9.65;;
20026;SDS011;10174;42.688;23.344;2022-12-10T01:35:17;30.83;;;9.98;;
20026;SDS011;10174;42.688;23.344;2022-12-10T01:37:43;27.15;;;10.07;;
20026;SDS011;10174;42.688;23.344;2022-12-10T01:40:08;25.48;;;9.27;;
20026;SDS011;10174;42.688;23.344;2022-12-10T01:42:34;33.78;;;10.90;;
20026;SDS011;10174;42.688;23.344;2022-12-10T01:45:01;28.33;;;8.90;;
20026;SDS011;10174;42.688;23.344;2022-12-10T01:47:29;25.13;;;9.27;;
20026;SDS011;10174;42.688;23.344;2022-12-10T01:49:54;30.30;;;9.95;;
20026;SDS011;10174;42.688;23.344;2022-12-10T01:52:22;30.30;;;9.60;;
20026;SDS011;10174;42.688;23.344;2022-12-10T01:54:47;30.92;;;9.82;;
20026;SDS011;10174;42.688;23.344;2022-12-10T01:57:18;28.83;;;9.45;;
20026;SDS011;10174;42.688;23.344;2022-12-10T01:59:51;27.08;;;10.05;;
20026;SDS011;10174;42.688;23.344;2022-12-10T02:05:21;28.98;;;9.93;;
20026;SDS011;10174;42.688;23.344;2022-12-10T02:08:10;31.98;;;9.32;;
20026;SDS011;10174;42.688;23.344;2022-12-10T02:10:46;27.98;;;9.75;;
20026;SDS011;10174;42.688;23.344;2022-12-10T02:16:08;38.55;;;9.50;;
20026;SDS011;10174;42.688;23.344;2022-12-10T02:18:41;26.83;;;9.60;;
20026;SDS011;10174;42.688;23.344;2022-12-10T02:21:13;25.17;;;9.32;;
20026;SDS011;10174;42.688;23.344;2022-12-10T02:23:54;28.08;;;9.73;;
20026;SDS011;10174;42.688;23.344;2022-12-10T02:26:34;31.52;;;9.98;;
20026;SDS011;10174;42.688;23.344;2022-12-10T02:31:39;34.78;;;11.32;;
20026;SDS011;10174;42.688;23.344;2022-12-10T02:34:08;34.70;;;10.55;;
20026;SDS011;10174;42.688;23.344;2022-12-10T02:36:37;30.27;;;10.07;;
20026;SDS011;10174;42.688;23.344;2022-12-10T02:39:06;30.13;;;10.77;;
20026;SDS011;10174;42.688;23.344;2022-12-10T02:41:35;32.08;;;10.48;;
20026;SDS011;10174;42.688;23.344;2022-12-10T02:44:06;33.88;;;10.18;;
20026;SDS011;10174;42.688;23.344;2022-12-10T02:46:35;24.38;;;10.18;;
20026;SDS011;10174;42.688;23.344;2022-12-10T02:49:03;30.83;;;10.23;;
20026;SDS011;10174;42.688;23.344;2022-12-10T02:51:30;29.50;;;11.30;;
20026;SDS011;10174;42.688;23.344;2022-12-10T02:54:03;32.05;;;10.98;;
20026;SDS011;10174;42.688;23.344;2022-12-10T02:59:23;35.50;;;10.85;;
20026;SDS011;10174;42.688;23.344;2022-12-10T03:02:00;23.77;;;10.47;;
20026;SDS011;10174;42.688;23.344;2022-12-10T03:04:33;27.80;;;10.23;;
20026;SDS011;10174;42.688;23.344;2022-12-10T03:07:08;33.25;;;11.82;;
20026;SDS011;10174;42.688;23.344;2022-12-10T03:09:39;23.27;;;9.60;;
20026;SDS011;10174;42.688;23.344;2022-12-10T03:12:17;22.90;;;10.00;;
20026;SDS011;10174;42.688;23.344;2022-12-10T03:14:50;28.15;;;10.02;;
20026;SDS011;10174;42.688;23.344;2022-12-10T03:17:19;34.58;;;10.48;;
20026;SDS011;10174;42.688;23.344;2022-12-10T03:19:47;30.15;;;10.60;;
20026;SDS011;10174;42.688;23.344;2022-12-10T03:22:15;29.67;;;10.50;;
20026;SDS011;10174;42.688;23.344;2022-12-10T03:24:44;29.13;;;10.50;;
20026;SDS011;10174;42.688;23.344;2022-12-10T03:27:10;27.45;;;10.27;;
20026;SDS011;10174;42.688;23.344;2022-12-10T03:29:38;30.92;;;11.30;;
20026;SDS011;10174;42.688;23.344;2022-12-10T03:32:10;41.45;;;10.80;;
20026;SDS011;10174;42.688;23.344;2022-12-10T03:34:36;24.70;;;10.65;;
20026;SDS011;10174;42.688;23.344;2022-12-10T03:37:03;28.58;;;10.55;;
20026;SDS011;10174;42.688;23.344;2022-12-10T03:39:28;32.75;;;11.48;;
20026;SDS011;10174;42.688;23.344;2022-12-10T03:41:54;31.75;;;9.73;;
20026;SDS011;10174;42.688;23.344;2022-12-10T03:44:26;28.90;;;10.70;;
20026;SDS011;10174;42.688;23.344;2022-12-10T03:46:53;25.05;;;9.88;;
20026;SDS011;10174;42.688;23.344;2022-12-10T03:49:19;29.02;;;10.70;;
20026;SDS011;10174;42.688;23.344;2022-12-10T03:51:44;27.25;;;10.77;;
20026;SDS011;10174;42.688;23.344;2022-12-10T03:54:09;30.25;;;11.23;;
20026;SDS011;10174;42.688;23.344;2022-12-10T03:56:35;38.65;;;10.63;;
20026;SDS011;10174;42.688;23.344;2022-12-10T03:59:00;28.55;;;10.38;;
20026;SDS011;10174;42.688;23.344;2022-12-10T04:01:25;33.47;;;10.95;;
20026;SDS011;10174;42.688;23.344;2022-12-10T04:03:51;24.50;;;9.50;;
20026;SDS011;10174;42.688;23.344;2022-12-10T04:06:17;38.53;;;10.55;;
20026;SDS011;10174;42.688;23.344;2022-12-10T04:08:44;24.65;;;10.40;;
20026;SDS011;10174;42.688;23.344;2022-12-10T04:11:11;31.85;;;10.73;;
20026;SDS011;10174;42.688;23.344;2022-12-10T04:13:37;25.25;;;10.57;;
20026;SDS011;10174;42.688;23.344;2022-12-10T04:16:22;29.83;;;10.00;;
20026;SDS011;10174;42.688;23.344;2022-12-10T04:18:56;27.58;;;11.98;;
20026;SDS011;10174;42.688;23.344;2022-12-10T04:21:27;29.85;;;12.00;;
20026;SDS011;10174;42.688;23.344;2022-12-10T04:24:12;32.63;;;12.90;;
20026;SDS011;10174;42.688;23.344;2022-12-10T04:26:58;25.90;;;13.43;;
20026;SDS011;10174;42.688;23.344;2022-12-10T04:29:28;32.97;;;13.18;;
20026;SDS011;10174;42.688;23.344;2022-12-10T04:31:55;35.78;;;14.73;;
20026;SDS011;10174;42.688;23.344;2022-12-10T04:34:21;37.17;;;14.30;;
20026;SDS011;10174;42.688;23.344;2022-12-10T04:36:47;34.00;;;13.95;;
20026;SDS011;10174;42.688;23.344;2022-12-10T04:39:12;43.95;;;13.60;;
20026;SDS011;10174;42.688;23.344;2022-12-10T04:41:39;28.30;;;13.25;;
20026;SDS011;10174;42.688;23.344;2022-12-10T04:44:05;32.47;;;13.32;;
20026;SDS011;10174;42.688;23.344;2022-12-10T04:46:31;33.90;;;13.40;;
20026;SDS011;10174;42.688;23.344;2022-12-10T04:48:57;39.33;;;14.32;;
20026;SDS011;10174;42.688;23.344;2022-12-10T04:51:22;37.67;;;13.18;;
20026;SDS011;10174;42.688;23.344;2022-12-10T04:53:48;39.78;;;15.00;;
20026;SDS011;10174;42.688;23.344;2022-12-10T04:56:13;37.95;;;13.32;;
20026;SDS011;10174;42.688;23.344;2022-12-10T04:58:39;41.40;;;14.90;;
20026;SDS011;10174;42.688;23.344;2022-12-10T05:01:05;36.50;;;14.35;;
20026;SDS011;10174;42.688;23.344;2022-12-10T05:03:32;32.03;;;12.25;;
20026;SDS011;10174;42.688;23.344;2022-12-10T05:06:02;33.58;;;13.32;;
20026;SDS011;10174;42.688;23.344;2022-12-10T05:08:28;45.63;;;15.70;;
20026;SDS011;10174;42.688;23.344;2022-12-10T05:10:54;27.42;;;12.23;;
20026;SDS011;10174;42.688;23.344;2022-12-10T05:13:20;42.80;;;15.30;;
20026;SDS011;10174;42.688;23.344;2022-12-10T05:15:46;31.35;;;13.32;;
20026;SDS011;10174;42.688;23.344;2022-12-10T05:18:11;40.75;;;16.15;;
20026;SDS011;10174;42.688;23.344;2022-12-10T05:20:37;37.13;;;13.52;;
20026;SDS011;10174;42.688;23.344;2022-12-10T05:23:02;32.20;;;11.73;;
20026;SDS011;10174;42.688;23.344;2022-12-10T05:25:46;27.15;;;12.05;;
20026;SDS011;10174;42.688;23.344;2022-12-10T05:28:21;32.33;;;13.43;;
20026;SDS011;10174;42.688;23.344;2022-12-10T05:30:47;35.85;;;13.68;;
20026;SDS011;10174;42.688;23.344;2022-12-10T05:33:13;34.65;;;13.40;;
20026;SDS011;10174;42.688;23.344;2022-12-10T05:35:39;32.28;;;13.55;;
20026;SDS011;10174;42.688;23.344;2022-12-10T05:38:04;33.15;;;13.30;;
20026;SDS011;10174;42.688;23.344;2022-12-10T05:40:33;35.17;;;15.10;;
20026;SDS011;10174;42.688;23.344;2022-12-10T05:43:00;51.10;;;15.32;;
20026;SDS011;10174;42.688;23.344;2022-12-10T05:45:25;36.63;;;14.45;;
20026;SDS011;10174;42.688;23.344;2022-12-10T05:47:50;39.60;;;14.68;;
20026;SDS011;10174;42.688;23.344;2022-12-10T05:50:16;36.28;;;13.60;;
20026;SDS011;10174;42.688;23.344;2022-12-10T05:52:42;38.85;;;13.90;;
20026;SDS011;10174;42.688;23.344;2022-12-10T05:55:07;38.63;;;14.27;;
20026;SDS011;10174;42.688;23.344;2022-12-10T05:57:33;46.40;;;15.05;;
20026;SDS011;10174;42.688;23.344;2022-12-10T05:59:58;54.92;;;15.68;;
20026;SDS011;10174;42.688;23.344;2022-12-10T06:02:23;47.85;;;14.95;;
20026;SDS011;10174;42.688;23.344;2022-12-10T06:04:49;42.75;;;15.65;;
20026;SDS011;10174;42.688;23.344;2022-12-10T06:07:15;49.10;;;15.90;;
20026;SDS011;10174;42.688;23.344;2022-12-10T06:09:40;49.42;;;15.48;;
20026;SDS011;10174;42.688;23.344;2022-12-10T06:12:05;39.45;;;16.30;;
20026;SDS011;10174;42.688;23.344;2022-12-10T06:14:31;34.55;;;13.57;;
20026;SDS011;10174;42.688;23.344;2022-12-10T06:16:56;37.95;;;14.07;;
20026;SDS011;10174;42.688;23.344;2022-12-10T06:19:22;37.83;;;14.52;;
20026;SDS011;10174;42.688;23.344;2022-12-10T06:21:47;34.40;;;14.13;;
20026;SDS011;10174;42.688;23.344;2022-12-10T06:24:12;42.42;;;15.88;;
20026;SDS011;10174;42.688;23.344;2022-12-10T06:26:38;40.47;;;15.35;;
20026;SDS011;10174;42.688;23.344;2022-12-10T06:29:03;119.93;;;50.70;;
20026;SDS011;10174;42.688;23.344;2022-12-10T06:31:29;39.55;;;17.85;;
20026;SDS011;10174;42.688;23.344;2022-12-10T06:33:55;36.42;;;13.75;;
20026;SDS011;10174;42.688;23.344;2022-12-10T06:36:21;42.22;;;15.80;;
20026;SDS011;10174;42.688;23.344;2022-12-10T06:38:47;45.95;;;16.00;;
20026;SDS011;10174;42.688;23.344;2022-12-10T06:41:15;36.83;;;15.77;;
20026;SDS011;10174;42.688;23.344;2022-12-10T06:43:42;36.90;;;16.80;;
20026;SDS011;10174;42.688;23.344;2022-12-10T06:46:08;46.65;;;18.98;;
20026;SDS011;10174;42.688;23.344;2022-12-10T06:48:35;44.05;;;19.65;;
20026;SDS011;10174;42.688;23.344;2022-12-10T06:51:01;46.35;;;19.25;;
20026;SDS011;10174;42.688;23.344;2022-12-10T06:53:28;47.42;;;17.65;;
20026;SDS011;10174;42.688;23.344;2022-12-10T06:55:53;43.70;;;16.30;;
20026;SDS011;10174;42.688;23.344;2022-12-10T06:58:19;32.67;;;14.07;;
20026;SDS011;10174;42.688;23.344;2022-12-10T07:00:44;39.25;;;15.27;;
20026;SDS011;10174;42.688;23.344;2022-12-10T07:03:09;37.92;;;15.82;;
20026;SDS011;10174;42.688;23.344;2022-12-10T07:05:35;47.17;;;15.43;;
20026;SDS011;10174;42.688;23.344;2022-12-10T07:08:00;38.85;;;15.80;;
20026;SDS011;10174;42.688;23.344;2022-12-10T07:10:25;31.95;;;15.18;;
20026;SDS011;10174;42.688;23.344;2022-12-10T07:12:51;40.05;;;19.50;;
20026;SDS011;10174;42.688;23.344;2022-12-10T07:15:16;46.38;;;19.85;;
20026;SDS011;10174;42.688;23.344;2022-12-10T07:17:42;41.05;;;17.98;;
20026;SDS011;10174;42.688;23.344;2022-12-10T07:20:07;36.95;;;17.02;;
20026;SDS011;10174;42.688;23.344;2022-12-10T07:22:33;42.45;;;17.27;;
20026;SDS011;10174;42.688;23.344;2022-12-10T07:24:58;41.88;;;15.70;;
20026;SDS011;10174;42.688;23.344;2022-12-10T07:27:24;42.63;;;15.57;;
20026;SDS011;10174;42.688;23.344;2022-12-10T07:29:49;42.42;;;15.90;;
20026;SDS011;10174;42.688;23.344;2022-12-10T07:32:15;42.20;;;16.45;;
20026;SDS011;10174;42.688;23.344;2022-12-10T07:34:41;43.83;;;16.65;;
20026;SDS011;10174;42.688;23.344;2022-12-10T07:37:06;33.13;;;15.70;;
20026;SDS011;10174;42.688;23.344;2022-12-10T07:39:32;34.47;;;14.02;;
20026;SDS011;10174;42.688;23.344;2022-12-10T07:41:57;40.08;;;15.25;;
20026;SDS011;10174;42.688;23.344;2022-12-10T07:44:23;46.28;;;16.02;;
20026;SDS011;10174;42.688;23.344;2022-12-10T07:46:50;46.65;;;16.23;;
20026;SDS011;10174;42.688;23.344;2022-12-10T07:49:18;46.53;;;16.27;;
20026;SDS011;10174;42.688;23.344;2022-12-10T07:51:44;32.90;;;15.00;;
20026;SDS011;10174;42.688;23.344;2022-12-10T07:54:16;30.80;;;14.77;;
20026;SDS011;10174;42.688;23.344;2022-12-10T07:56:42;33.55;;;15.23;;
20026;SDS011;10174;42.688;23.344;2022-12-10T07:59:07;34.85;;;15.80;;
20026;SDS011;10174;42.688;23.344;2022-12-10T08:01:33;30.65;;;14.35;;
20026;SDS011;10174;42.688;23.344;2022-12-10T08:03:59;30.05;;;15.18;;
20026;SDS011;10174;42.688;23.344;2022-12-10T08:06:26;36.22;;;16.10;;
20026;SDS011;10174;42.688;23.344;2022-12-10T08:08:52;39.78;;;16.58;;
20026;SDS011;10174;42.688;23.344;2022-12-10T08:11:19;41.22;;;16.17;;
20026;SDS011;10174;42.688;23.344;2022-12-10T08:13:46;38.13;;;16.27;;
20026;SDS011;10174;42.688;23.344;2022-12-10T08:18:37;45.10;;;16.40;;
20026;SDS011;10174;42.688;23.344;2022-12-10T08:21:05;28.40;;;14.98;;
20026;SDS011;10174;42.688;23.344;2022-12-10T08:23:31;39.85;;;16.33;;
20026;SDS011;10174;42.688;23.344;2022-12-10T08:25:58;30.80;;;14.73;;
20026;SDS011;10174;42.688;23.344;2022-12-10T08:28:23;42.25;;;16.27;;
20026;SDS011;10174;42.688;23.344;2022-12-10T08:30:49;36.88;;;15.55;;
20026;SDS011;10174;42.688;23.344;2022-12-10T08:33:14;35.80;;;15.63;;
20026;SDS011;10174;42.688;23.344;2022-12-10T08:35:40;35.38;;;15.38;;
20026;SDS011;10174;42.688;23.344;2022-12-10T08:38:05;39.83;;;15.98;;
20026;SDS011;10174;42.688;23.344;2022-12-10T08:40:31;41.10;;;16.42;;
20026;SDS011;10174;42.688;23.344;2022-12-10T08:42:56;35.13;;;15.85;;
20026;SDS011;10174;42.688;23.344;2022-12-10T08:45:22;41.80;;;19.70;;
20026;SDS011;10174;42.688;23.344;2022-12-10T08:47:47;39.63;;;19.60;;
20026;SDS011;10174;42.688;23.344;2022-12-10T08:50:12;57.42;;;24.13;;
20026;SDS011;10174;42.688;23.344;2022-12-10T08:52:38;43.20;;;20.73;;
20026;SDS011;10174;42.688;23.344;2022-12-10T08:55:03;41.05;;;21.02;;
20026;SDS011;10174;42.688;23.344;2022-12-10T08:57:29;44.55;;;19.73;;
20026;SDS011;10174;42.688;23.344;2022-12-10T08:59:54;45.03;;;20.65;;
20026;SDS011;10174;42.688;23.344;2022-12-10T09:02:20;41.38;;;20.30;;
20026;SDS011;10174;42.688;23.344;2022-12-10T09:04:45;45.97;;;19.92;;
20026;SDS011;10174;42.688;23.344;2022-12-10T09:07:11;34.00;;;18.05;;
20026;SDS011;10174;42.688;23.344;2022-12-10T09:09:36;41.35;;;16.70;;
20026;SDS011;10174;42.688;23.344;2022-12-10T09:12:02;36.00;;;16.55;;
20026;SDS011;10174;42.688;23.344;2022-12-10T09:14:28;32.03;;;15.02;;
20026;SDS011;10174;42.688;23.344;2022-12-10T09:16:53;42.00;;;16.02;;
20026;SDS011;10174;42.688;23.344;2022-12-10T09:19:18;35.05;;;16.65;;
20026;SDS011;10174;42.688;23.344;2022-12-10T09:21:44;36.03;;;14.80;;
20026;SDS011;10174;42.688;23.344;2022-12-10T09:24:09;29.77;;;14.15;;
20026;SDS011;10174;42.688;23.344;2022-12-10T09:26:34;32.55;;;14.38;;
20026;SDS011;10174;42.688;23.344;2022-12-10T09:29:00;30.65;;;13.95;;
20026;SDS011;10174;42.688;23.344;2022-12-10T09:31:26;30.55;;;13.50;;
20026;SDS011;10174;42.688;23.344;2022-12-10T09:33:52;30.95;;;13.77;;
20026;SDS011;10174;42.688;23.344;2022-12-10T09:36:19;28.27;;;13.18;;
20026;SDS011;10174;42.688;23.344;2022-12-10T09:38:46;32.55;;;14.15;;
20026;SDS011;10174;42.688;23.344;2022-12-10T09:44:14;37.92;;;14.88;;
20026;SDS011;10174;42.688;23.344;2022-12-10T09:47:09;38.85;;;15.95;;
20026;SDS011;10174;42.688;23.344;2022-12-10T09:52:27;35.33;;;15.05;;
20026;SDS011;10174;42.688;23.344;2022-12-10T09:55:10;38.28;;;14.77;;
20026;SDS011;10174;42.688;23.344;2022-12-10T09:57:40;27.67;;;13.82;;
20026;SDS011;10174;42.688;23.344;2022-12-10T10:03:15;45.63;;;14.73;;
20026;SDS011;10174;42.688;23.344;2022-12-10T10:05:42;32.40;;;12.43;;
20026;SDS011;10174;42.688;23.344;2022-12-10T10:08:53;30.15;;;13.75;;
20026;SDS011;10174;42.688;23.344;2022-12-10T10:11:01;27.15;;;11.05;;
20026;SDS011;10174;42.688;23.344;2022-12-10T10:13:34;26.10;;;11.35;;
20026;SDS011;10174;42.688;23.344;2022-12-10T10:18:55;27.88;;;11.88;;
20026;SDS011;10174;42.688;23.344;2022-12-10T10:21:22;24.48;;;10.63;;
20026;SDS011;10174;42.688;23.344;2022-12-10T10:23:50;27.65;;;12.00;;
20026;SDS011;10174;42.688;23.344;2022-12-10T10:26:16;26.25;;;9.82;;
20026;SDS011;10174;42.688;23.344;2022-12-10T10:28:41;23.48;;;10.57;;
20026;SDS011;10174;42.688;23.344;2022-12-10T10:31:19;19.73;;;10.48;;
20026;SDS011;10174;42.688;23.344;2022-12-10T10:33:55;28.15;;;10.13;;
20026;SDS011;10174;42.688;23.344;2022-12-10T10:36:26;26.70;;;11.27;;
20026;SDS011;10174;42.688;23.344;2022-12-10T10:39:09;23.92;;;11.32;;
20026;SDS011;10174;42.688;23.344;2022-12-10T10:41:37;24.27;;;10.95;;
20026;SDS011;10174;42.688;23.344;2022-12-10T10:44:05;24.23;;;10.85;;
20026;SDS011;10174;42.688;23.344;2022-12-10T10:46:38;29.17;;;11.32;;
20026;SDS011;10174;42.688;23.344;2022-12-10T10:49:13;27.05;;;11.10;;
20026;SDS011;10174;42.688;23.344;2022-12-10T10:51:45;24.30;;;11.38;;
20026;SDS011;10174;42.688;23.344;2022-12-10T10:54:10;25.17;;;12.00;;
20026;SDS011;10174;42.688;23.344;2022-12-10T10:56:42;23.83;;;11.25;;
20026;SDS011;10174;42.688;23.344;2022-12-10T11:01:56;27.13;;;10.82;;
20026;SDS011;10174;42.688;23.344;2022-12-10T11:07:01;23.10;;;11.02;;
20026;SDS011;10174;42.688;23.344;2022-12-10T11:09:29;23.20;;;10.15;;
20026;SDS011;10174;42.688;23.344;2022-12-10T11:12:02;32.25;;;11.50;;
20026;SDS011;10174;42.688;23.344;2022-12-10T11:17:00;22.85;;;10.82;;
20026;SDS011;10174;42.688;23.344;2022-12-10T11:19:43;22.85;;;10.68;;
20026;SDS011;10174;42.688;23.344;2022-12-10T11:22:21;20.13;;;9.75;;
20026;SDS011;10174;42.688;23.344;2022-12-10T11:24:51;24.60;;;12.23;;
20026;SDS011;10174;42.688;23.344;2022-12-10T11:27:37;20.70;;;9.82;;
20026;SDS011;10174;42.688;23.344;2022-12-10T11:30:17;24.52;;;9.75;;
20026;SDS011;10174;42.688;23.344;2022-12-10T11:49:26;20.98;;;9.15;;
20026;SDS011;10174;42.688;23.344;2022-12-10T11:54:53;26.77;;;9.02;;
20026;SDS011;10174;42.688;23.344;2022-12-10T12:02:41;20.85;;;10.93;;
20026;SDS011;10174;42.688;23.344;2022-12-10T12:11:02;20.38;;;10.30;;
20026;SDS011;10174;42.688;23.344;2022-12-10T12:18:45;24.08;;;10.77;;
20026;SDS011;10174;42.688;23.344;2022-12-10T12:21:17;24.98;;;10.65;;
20026;SDS011;10174;42.688;23.344;2022-12-10T12:23:45;26.30;;;11.63;;
20026;SDS011;10174;42.688;23.344;2022-12-10T12:26:20;33.05;;;11.30;;
20026;SDS011;10174;42.688;23.344;2022-12-10T12:31:37;30.73;;;11.38;;
20026;SDS011;10174;42.688;23.344;2022-12-10T12:34:06;37.92;;;16.25;;
20026;SDS011;10174;42.688;23.344;2022-12-10T12:36:43;29.58;;;11.52;;
20026;SDS011;10174;42.688;23.344;2022-12-10T12:39:53;25.50;;;11.02;;
20026;SDS011;10174;42.688;23.344;2022-12-10T12:45:03;27.27;;;12.02;;
20026;SDS011;10174;42.688;23.344;2022-12-10T12:47:46;27.33;;;11.02;;
20026;SDS011;10174;42.688;23.344;2022-12-10T12:53:18;23.92;;;10.77;;
20026;SDS011;10174;42.688;23.344;2022-12-10T13:04:02;21.63;;;10.88;;
20026;SDS011;10174;42.688;23.344;2022-12-10T13:06:30;23.30;;;9.90;;
20026;SDS011;10174;42.688;23.344;2022-12-10T13:11:42;27.75;;;11.40;;
20026;SDS011;10174;42.688;23.344;2022-12-10T13:16:35;25.67;;;10.93;;
20026;SDS011;10174;42.688;23.344;2022-12-10T13:37:33;36.90;;;11.15;;
20026;SDS011;10174;42.688;23.344;2022-12-10T13:42:33;32.45;;;12.15;;
20026;SDS011;10174;42.688;23.344;2022-12-10T13:45:35;30.48;;;11.73;;
20026;SDS011;10174;42.688;23.344;2022-12-10T13:48:17;29.77;;;10.70;;
20026;SDS011;10174;42.688;23.344;2022-12-10T13:51:10;29.08;;;13.02;;
20026;SDS011;10174;42.688;23.344;2022-12-10T13:53:48;27.23;;;11.90;;
20026;SDS011;10174;42.688;23.344;2022-12-10T14:07:00;43.53;;;11.35;;
20026;SDS011;10174;42.688;23.344;2022-12-10T14:09:30;35.50;;;10.88;;
20026;SDS011;10174;42.688;23.344;2022-12-10T14:14:32;34.65;;;11.07;;
20026;SDS011;10174;42.688;23.344;2022-12-10T14:17:01;39.00;;;12.32;;
20026;SDS011;10174;42.688;23.344;2022-12-10T14:19:29;42.05;;;12.95;;
20026;SDS011;10174;42.688;23.344;2022-12-10T14:21:55;47.83;;;12.75;;
20026;SDS011;10174;42.688;23.344;2022-12-10T14:24:25;45.60;;;13.05;;
20026;SDS011;10174;42.688;23.344;2022-12-10T14:27:47;49.97;;;15.70;;
20026;SDS011;10174;42.688;23.344;2022-12-10T14:29:52;42.65;;;13.88;;
20026;SDS011;10174;42.688;23.344;2022-12-10T14:32:40;58.17;;;14.52;;
20026;SDS011;10174;42.688;23.344;2022-12-10T14:35:07;56.05;;;15.70;;
20026;SDS011;10174;42.688;23.344;2022-12-10T14:37:39;60.85;;;16.55;;
20026;SDS011;10174;42.688;23.344;2022-12-10T14:40:07;46.80;;;14.38;;
20026;SDS011;10174;42.688;23.344;2022-12-10T14:42:34;51.17;;;15.10;;
20026;SDS011;10174;42.688;23.344;2022-12-10T14:45:04;43.80;;;13.90;;
20026;SDS011;10174;42.688;23.344;2022-12-10T14:47:38;42.00;;;16.40;;
20026;SDS011;10174;42.688;23.344;2022-12-10T14:50:06;45.85;;;15.05;;
20026;SDS011;10174;42.688;23.344;2022-12-10T14:52:43;47.17;;;14.73;;
20026;SDS011;10174;42.688;23.344;2022-12-10T14:55:14;36.45;;;14.38;;
20026;SDS011;10174;42.688;23.344;2022-12-10T14:57:46;41.10;;;15.05;;
20026;SDS011;10174;42.688;23.344;2022-12-10T15:00:19;67.90;;;16.05;;
20026;SDS011;10174;42.688;23.344;2022-12-10T15:02:48;68.22;;;16.15;;
20026;SDS011;10174;42.688;23.344;2022-12-10T15:05:24;46.28;;;16.08;;
20026;SDS011;10174;42.688;23.344;2022-12-10T15:07:56;51.58;;;17.38;;
20026;SDS011;10174;42.688;23.344;2022-12-10T15:10:26;49.45;;;14.80;;
20026;SDS011;10174;42.688;23.344;2022-12-10T15:12:56;39.63;;;12.05;;
20026;SDS011;10174;42.688;23.344;2022-12-10T15:15:24;48.60;;;15.43;;
20026;SDS011;10174;42.688;23.344;2022-12-10T15:20:36;43.88;;;15.23;;
20026;SDS011;10174;42.688;23.344;2022-12-10T15:28:22;45.85;;;16.00;;
20026;SDS011;10174;42.688;23.344;2022-12-10T15:30:50;47.80;;;15.98;;
20026;SDS011;10174;42.688;23.344;2022-12-10T15:33:33;53.45;;;15.68;;
20026;SDS011;10174;42.688;23.344;2022-12-10T15:36:03;58.53;;;16.58;;
20026;SDS011;10174;42.688;23.344;2022-12-10T15:38:29;45.97;;;16.52;;
20026;SDS011;10174;42.688;23.344;2022-12-10T15:44:26;49.40;;;16.27;;
20026;SDS011;10174;42.688;23.344;2022-12-10T15:47:00;42.75;;;17.98;;
20026;SDS011;10174;42.688;23.344;2022-12-10T15:49:29;48.50;;;17.40;;
20026;SDS011;10174;42.688;23.344;2022-12-10T15:51:55;49.13;;;21.27;;
20026;SDS011;10174;42.688;23.344;2022-12-10T15:56:47;49.35;;;18.92;;
20026;SDS011;10174;42.688;23.344;2022-12-10T15:59:12;61.15;;;17.90;;
20026;SDS011;10174;42.688;23.344;2022-12-10T16:01:38;63.22;;;18.80;;
20026;SDS011;10174;42.688;23.344;2022-12-10T16:04:04;69.85;;;22.58;;
20026;SDS011;10174;42.688;23.344;2022-12-10T16:06:29;76.38;;;32.85;;
20026;SDS011;10174;42.688;23.344;2022-12-10T16:08:55;71.57;;;30.25;;
20026;SDS011;10174;42.688;23.344;2022-12-10T16:11:20;72.47;;;28.90;;
20026;SDS011;10174;42.688;23.344;2022-12-10T16:13:48;62.20;;;23.98;;
20026;SDS011;10174;42.688;23.344;2022-12-10T16:16:16;58.40;;;24.70;;
20026;SDS011;10174;42.688;23.344;2022-12-10T16:18:42;63.65;;;28.63;;
20026;SDS011;10174;42.688;23.344;2022-12-10T16:21:08;59.70;;;26.13;;
20026;SDS011;10174;42.688;23.344;2022-12-10T16:23:33;57.50;;;24.50;;
20026;SDS011;10174;42.688;23.344;2022-12-10T16:25:59;65.28;;;26.23;;
20026;SDS011;10174;42.688;23.344;2022-12-10T16:28:25;66.07;;;24.75;;
20026;SDS011;10174;42.688;23.344;2022-12-10T16:30:55;60.47;;;25.80;;
20026;SDS011;10174;42.688;23.344;2022-12-10T16:33:24;60.63;;;26.10;;
20026;SDS011;10174;42.688;23.344;2022-12-10T16:35:51;39.88;;;17.27;;
20026;SDS011;10174;42.688;23.344;2022-12-10T16:38:19;46.95;;;17.92;;
20026;SDS011;10174;42.688;23.344;2022-12-10T16:40:46;50.92;;;19.63;;